TimeAWST,TemperatureF,Dew PointF,Humidity,Sea Level PressureIn,VisibilityMPH,Wind Direction,Wind SpeedMPH,Gust SpeedMPH,PrecipitationIn,Events,Conditions,WindDirDegrees,DateUTC
12:00 AM,81,68,56,29.82,,SE,6.9,,,,,130,2013-04-06 16:00:00
12:00 AM,80.6,68.0,65,29.83,-9999.0,SE,6.9,-,N/A,,Unknown,130,2013-04-06 16:00:00
1:00 AM,80.6,68.0,65,29.80,-9999.0,ESE,8.1,-,N/A,,Unknown,120,2013-04-06 17:00:00
2:00 AM,80.6,68.0,65,29.80,-9999.0,ESE,8.1,-,N/A,,Unknown,120,2013-04-06 18:00:00
3:00 AM,78,68,63,29.80,,ESE,8.1,,,,,120,2013-04-06 19:00:00
3:00 AM,78.8,68.0,69,29.80,-9999.0,ESE,8.1,-,N/A,,Unknown,120,2013-04-06 19:00:00
4:00 AM,77.0,68.0,74,29.80,-9999.0,ESE,6.9,-,N/A,,Unknown,110,2013-04-06 20:00:00
5:00 AM,77.0,68.0,74,29.80,-9999.0,SE,6.9,-,N/A,,Unknown,130,2013-04-06 21:00:00
6:00 AM,75,69,75,29.81,,ESE,6.9,,,,,120,2013-04-06 22:00:00
6:00 AM,75.2,68.0,78,29.83,-9999.0,ESE,6.9,-,N/A,,Unknown,120,2013-04-06 22:00:00
7:00 AM,78.8,69.8,74,29.83,-9999.0,ESE,8.1,-,N/A,,Unknown,110,2013-04-06 23:00:00
8:00 AM,86.0,71.6,62,29.83,-9999.0,East,8.1,-,N/A,,Unknown,90,2013-04-07 00:00:00
9:00 AM,91,71,43,29.84,,East,8.1,,,,,80,2013-04-07 01:00:00
9:00 AM,91.4,71.6,52,29.83,-9999.0,East,8.1,-,N/A,,Unknown,80,2013-04-07 01:00:00
10:00 AM,91.4,69.8,49,29.83,-9999.0,ESE,6.9,-,N/A,,Unknown,110,2013-04-07 02:00:00
11:00 AM,93.2,68.0,44,29.83,-9999.0,East,6.9,-,N/A,,Unknown,100,2013-04-07 03:00:00
12:00 PM,94,69,34,29.78,,ENE,6.9,,,,,60,2013-04-07 04:00:00
12:00 PM,95.0,69.8,44,29.80,-9999.0,ENE,6.9,-,N/A,,Unknown,60,2013-04-07 04:00:00
1:00 PM,95.0,71.6,47,29.77,-9999.0,SSE,4.6,-,N/A,,Unknown,150,2013-04-07 05:00:00
2:00 PM,93.2,69.8,46,29.74,-9999.0,SE,8.1,-,N/A,,Unknown,140,2013-04-07 06:00:00
3:00 PM,97,69,30,29.73,,East,6.9,,,,,100,2013-04-07 07:00:00
3:00 PM,96.8,68.0,39,29.74,-9999.0,East,6.9,-,N/A,,Unknown,90,2013-04-07 07:00:00
4:00 PM,95.0,69.8,44,29.74,-9999.0,ENE,4.6,-,N/A,,Unknown,70,2013-04-07 08:00:00
5:00 PM,89.6,69.8,52,29.74,-9999.0,ENE,3.5,-,N/A,,Unknown,60,2013-04-07 09:00:00
6:00 PM,86,71,52,29.76,,East,4.6,,,,,100,2013-04-07 10:00:00
6:00 PM,86.0,71.6,62,29.77,-9999.0,East,4.6,-,N/A,,Unknown,90,2013-04-07 10:00:00
7:00 PM,84.2,69.8,62,29.80,-9999.0,Calm,Calm,-,N/A,,Unknown,0,2013-04-07 11:00:00
8:00 PM,82.4,69.8,66,29.83,-9999.0,Calm,Calm,-,N/A,,Unknown,0,2013-04-07 12:00:00
9:00 PM,81,68,56,29.84,,East,5.8,,,,,100,2013-04-07 13:00:00
9:00 PM,80.6,68.0,65,29.83,-9999.0,East,5.8,-,N/A,,Unknown,100,2013-04-07 13:00:00
10:00 PM,80.6,68.0,65,29.83,-9999.0,NNE,5.8,-,N/A,,Unknown,20,2013-04-07 14:00:00
11:00 PM,77.0,68.0,74,29.83,-9999.0,North,4.6,-,N/A,,Unknown,10,2013-04-07 15:00:00